Farmers Branch, Texas
Current Conditions -  °F | °C
As of 10:15 PM on Friday 19 Dec 2014 (Local Time) from KADS Reporting Station
Overcast Overcast  
Wind Chill: 45°   Ceiling: 800
Heat Index: 47°   Visibility: 7mi
Dew Point: 47°   Wind: 6mph
Humidity: 100%   Direction: 350°N
Pressure: 30.23"   Gusts: NA
Location:  32.92°N, 96.89°W
Report Text: KADS 200415Z AUTO 35005KT 7SM OVC008 09/09 A3023 RMK AO2 T00850085
Loading
Personal Weather Stations






























Interactive Weather Map New forecast layout! Learn more

10-Day Weather Forecast

Advertisements
Track Severe Weather on mobile